Weather at Berkeley Municipal Heliport [CLOSED]

Public forecast

Using degrees Fahrenheit for public forecast. Weather courtesy of forecast.io.

Closest aviation weather report (METAR) to Berkeley Municipal Heliport

Closest report is Metropolitan Oakland International Airport, 9.7 nm (17.9 km) SSE.

2024/05/24 19:53 (retrieved 51 minutes ago)

KOAK 241953Z 25014G21KT 10SM OVC017 13/09 A2994 RMK AO2 SLP138 T01280089

Closest aviation forecast (TAF) to Berkeley Municipal Heliport

Closest forecast is Metropolitan Oakland International Airport, 9.7 nm (17.9 km) SSE.

2024/05/24 18:18 Ammendment (retrieved 2 hours ago)

TAF AMD KOAK 241816Z 2418/2524 26014KT P6SM BKN010 FM242200 26018G26KT P6SM FEW030 FM250400 27018KT P6SM BKN030 FM250800 26012KT P6SM OVC010 FM252000 25015KT P6SM SCT020